sensor_id;sensor_type;location;lat;lon;timestamp;temperature;humidity
19862;DHT22;10093;48.148;8.542;2022-10-16T00:00:39;13.10;99.90
19862;DHT22;10093;48.148;8.542;2022-10-16T00:03:05;13.00;99.90
19862;DHT22;10093;48.148;8.542;2022-10-16T00:05:31;13.20;99.90
19862;DHT22;10093;48.148;8.542;2022-10-16T00:07:57;13.30;99.90
19862;DHT22;10093;48.148;8.542;2022-10-16T00:10:23;13.20;99.90
19862;DHT22;10093;48.148;8.542;2022-10-16T00:12:49;13.10;99.90
19862;DHT22;10093;48.148;8.542;2022-10-16T00:15:15;13.00;99.90
19862;DHT22;10093;48.148;8.542;2022-10-16T00:17:40;13.00;99.90
19862;DHT22;10093;48.148;8.542;2022-10-16T00:20:06;13.00;99.90
19862;DHT22;10093;48.148;8.542;2022-10-16T00:22:32;12.90;99.90
19862;DHT22;10093;48.148;8.542;2022-10-16T00:24:58;12.90;99.90
19862;DHT22;10093;48.148;8.542;2022-10-16T00:27:24;13.10;99.90
19862;DHT22;10093;48.148;8.542;2022-10-16T00:29:50;13.00;99.90
19862;DHT22;10093;48.148;8.542;2022-10-16T00:32:17;13.00;99.90
19862;DHT22;10093;48.148;8.542;2022-10-16T00:34:43;12.90;99.90
19862;DHT22;10093;48.148;8.542;2022-10-16T00:37:09;12.90;99.90
19862;DHT22;10093;48.148;8.542;2022-10-16T00:39:34;12.90;99.90
19862;DHT22;10093;48.148;8.542;2022-10-16T00:42:00;12.90;99.90
19862;DHT22;10093;48.148;8.542;2022-10-16T00:44:52;13.00;99.90
19862;DHT22;10093;48.148;8.542;2022-10-16T00:47:31;13.10;99.90
19862;DHT22;10093;48.148;8.542;2022-10-16T00:50:21;13.10;99.90
19862;DHT22;10093;48.148;8.542;2022-10-16T00:52:49;13.10;99.90
19862;DHT22;10093;48.148;8.542;2022-10-16T00:55:16;13.20;99.90
19862;DHT22;10093;48.148;8.542;2022-10-16T00:57:42;13.20;99.90
19862;DHT22;10093;48.148;8.542;2022-10-16T01:00:11;13.20;99.90
19862;DHT22;10093;48.148;8.542;2022-10-16T01:02:37;13.30;99.90
19862;DHT22;10093;48.148;8.542;2022-10-16T01:05:03;13.30;99.90
19862;DHT22;10093;48.148;8.542;2022-10-16T01:13:13;13.50;99.90
19862;DHT22;10093;48.148;8.542;2022-10-16T01:15:54;13.50;99.90
19862;DHT22;10093;48.148;8.542;2022-10-16T01:18:39;13.30;99.90
19862;DHT22;10093;48.148;8.542;2022-10-16T01:21:18;13.40;99.90
19862;DHT22;10093;48.148;8.542;2022-10-16T01:29:27;13.80;99.90
19862;DHT22;10093;48.148;8.542;2022-10-16T01:32:00;13.80;99.90
19862;DHT22;10093;48.148;8.542;2022-10-16T01:34:37;13.90;99.90
19862;DHT22;10093;48.148;8.542;2022-10-16T01:37:12;13.80;99.90
19862;DHT22;10093;48.148;8.542;2022-10-16T01:39:40;13.80;99.90
19862;DHT22;10093;48.148;8.542;2022-10-16T01:42:30;13.70;99.90
19862;DHT22;10093;48.148;8.542;2022-10-16T01:45:00;13.70;99.90
19862;DHT22;10093;48.148;8.542;2022-10-16T01:47:27;13.80;99.90
19862;DHT22;10093;48.148;8.542;2022-10-16T01:49:54;13.80;99.90
19862;DHT22;10093;48.148;8.542;2022-10-16T01:52:23;13.70;99.90
19862;DHT22;10093;48.148;8.542;2022-10-16T01:54:52;13.80;99.90
19862;DHT22;10093;48.148;8.542;2022-10-16T01:57:20;13.80;99.90
19862;DHT22;10093;48.148;8.542;2022-10-16T01:59:49;13.90;99.90
19862;DHT22;10093;48.148;8.542;2022-10-16T02:02:18;13.90;99.90
19862;DHT22;10093;48.148;8.542;2022-10-16T02:04:48;13.80;99.90
19862;DHT22;10093;48.148;8.542;2022-10-16T02:07:14;13.80;99.90
19862;DHT22;10093;48.148;8.542;2022-10-16T02:09:41;13.70;99.90
19862;DHT22;10093;48.148;8.542;2022-10-16T02:12:15;13.80;99.90
19862;DHT22;10093;48.148;8.542;2022-10-16T02:14:41;13.90;99.90
19862;DHT22;10093;48.148;8.542;2022-10-16T02:17:12;13.90;99.90
19862;DHT22;10093;48.148;8.542;2022-10-16T02:19:38;14.00;99.90
19862;DHT22;10093;48.148;8.542;2022-10-16T02:22:06;14.00;99.90
19862;DHT22;10093;48.148;8.542;2022-10-16T02:24:38;14.00;99.90
19862;DHT22;10093;48.148;8.542;2022-10-16T02:27:24;14.00;99.90
19862;DHT22;10093;48.148;8.542;2022-10-16T02:30:05;13.90;99.90
19862;DHT22;10093;48.148;8.542;2022-10-16T02:32:34;13.90;99.90
19862;DHT22;10093;48.148;8.542;2022-10-16T02:35:02;13.90;99.90
19862;DHT22;10093;48.148;8.542;2022-10-16T02:37:28;13.90;99.90
19862;DHT22;10093;48.148;8.542;2022-10-16T02:39:55;14.00;99.90
19862;DHT22;10093;48.148;8.542;2022-10-16T02:42:21;14.00;99.90
19862;DHT22;10093;48.148;8.542;2022-10-16T02:44:52;14.00;99.90
19862;DHT22;10093;48.148;8.542;2022-10-16T02:47:18;14.00;99.90
19862;DHT22;10093;48.148;8.542;2022-10-16T02:52:13;14.00;99.90
19862;DHT22;10093;48.148;8.542;2022-10-16T02:54:39;14.00;99.90
19862;DHT22;10093;48.148;8.542;2022-10-16T02:57:05;14.00;99.90
19862;DHT22;10093;48.148;8.542;2022-10-16T02:59:30;13.90;99.90
19862;DHT22;10093;48.148;8.542;2022-10-16T03:01:56;13.80;99.90
19862;DHT22;10093;48.148;8.542;2022-10-16T03:04:21;13.90;99.90
19862;DHT22;10093;48.148;8.542;2022-10-16T03:06:47;13.90;99.90
19862;DHT22;10093;48.148;8.542;2022-10-16T03:09:12;13.90;99.90
19862;DHT22;10093;48.148;8.542;2022-10-16T03:11:38;13.80;99.90
19862;DHT22;10093;48.148;8.542;2022-10-16T03:14:04;13.80;99.90
19862;DHT22;10093;48.148;8.542;2022-10-16T03:16:29;13.80;99.90
19862;DHT22;10093;48.148;8.542;2022-10-16T03:18:55;13.80;99.90
19862;DHT22;10093;48.148;8.542;2022-10-16T03:21:21;13.80;99.90
19862;DHT22;10093;48.148;8.542;2022-10-16T03:23:47;13.80;99.90
19862;DHT22;10093;48.148;8.542;2022-10-16T03:26:12;13.70;99.90
19862;DHT22;10093;48.148;8.542;2022-10-16T03:28:38;13.70;99.90
19862;DHT22;10093;48.148;8.542;2022-10-16T03:31:03;13.70;99.90
19862;DHT22;10093;48.148;8.542;2022-10-16T03:33:29;13.70;99.90
19862;DHT22;10093;48.148;8.542;2022-10-16T03:35:55;13.70;99.90
19862;DHT22;10093;48.148;8.542;2022-10-16T03:38:21;13.60;99.90
19862;DHT22;10093;48.148;8.542;2022-10-16T03:40:47;13.70;99.90
19862;DHT22;10093;48.148;8.542;2022-10-16T03:43:13;13.70;99.90
19862;DHT22;10093;48.148;8.542;2022-10-16T03:45:39;13.60;99.90
19862;DHT22;10093;48.148;8.542;2022-10-16T03:48:05;13.60;99.90
19862;DHT22;10093;48.148;8.542;2022-10-16T03:50:31;13.60;99.90
19862;DHT22;10093;48.148;8.542;2022-10-16T03:52:56;13.60;99.90
19862;DHT22;10093;48.148;8.542;2022-10-16T03:55:22;13.70;99.90
19862;DHT22;10093;48.148;8.542;2022-10-16T03:57:47;13.70;99.90
19862;DHT22;10093;48.148;8.542;2022-10-16T04:00:13;13.60;99.90
19862;DHT22;10093;48.148;8.542;2022-10-16T04:02:39;13.60;99.90
19862;DHT22;10093;48.148;8.542;2022-10-16T04:05:06;13.70;99.90
19862;DHT22;10093;48.148;8.542;2022-10-16T04:07:31;13.60;99.90
19862;DHT22;10093;48.148;8.542;2022-10-16T04:09:57;13.60;99.90
19862;DHT22;10093;48.148;8.542;2022-10-16T04:12:24;13.70;99.90
19862;DHT22;10093;48.148;8.542;2022-10-16T04:14:50;13.70;99.90
19862;DHT22;10093;48.148;8.542;2022-10-16T04:17:16;13.80;99.90
19862;DHT22;10093;48.148;8.542;2022-10-16T04:19:41;13.80;99.90
19862;DHT22;10093;48.148;8.542;2022-10-16T04:22:07;13.80;99.90
19862;DHT22;10093;48.148;8.542;2022-10-16T04:24:33;13.80;99.90
19862;DHT22;10093;48.148;8.542;2022-10-16T04:26:58;13.80;99.90
19862;DHT22;10093;48.148;8.542;2022-10-16T04:29:24;13.80;99.90
19862;DHT22;10093;48.148;8.542;2022-10-16T04:31:49;13.80;99.90
19862;DHT22;10093;48.148;8.542;2022-10-16T04:34:15;13.90;99.90
19862;DHT22;10093;48.148;8.542;2022-10-16T04:36:41;13.90;99.90
19862;DHT22;10093;48.148;8.542;2022-10-16T04:39:06;13.90;99.90
19862;DHT22;10093;48.148;8.542;2022-10-16T04:41:32;13.90;99.90
19862;DHT22;10093;48.148;8.542;2022-10-16T04:43:57;13.90;99.90
19862;DHT22;10093;48.148;8.542;2022-10-16T04:46:23;13.90;99.90
19862;DHT22;10093;48.148;8.542;2022-10-16T04:48:48;13.90;99.90
19862;DHT22;10093;48.148;8.542;2022-10-16T04:51:14;13.80;99.90
19862;DHT22;10093;48.148;8.542;2022-10-16T04:53:40;13.80;99.90
19862;DHT22;10093;48.148;8.542;2022-10-16T04:56:05;13.80;99.90
19862;DHT22;10093;48.148;8.542;2022-10-16T04:58:31;13.70;99.90
19862;DHT22;10093;48.148;8.542;2022-10-16T05:00:57;13.70;99.90
19862;DHT22;10093;48.148;8.542;2022-10-16T05:03:23;13.70;99.90
19862;DHT22;10093;48.148;8.542;2022-10-16T05:05:48;13.70;99.90
19862;DHT22;10093;48.148;8.542;2022-10-16T05:08:15;13.70;99.90
19862;DHT22;10093;48.148;8.542;2022-10-16T05:10:42;13.70;99.90
19862;DHT22;10093;48.148;8.542;2022-10-16T05:13:08;13.70;99.90
19862;DHT22;10093;48.148;8.542;2022-10-16T05:15:34;13.70;99.90
19862;DHT22;10093;48.148;8.542;2022-10-16T05:17:59;13.70;99.90
19862;DHT22;10093;48.148;8.542;2022-10-16T05:20:25;13.70;99.90
19862;DHT22;10093;48.148;8.542;2022-10-16T05:22:50;13.60;99.90
19862;DHT22;10093;48.148;8.542;2022-10-16T05:25:16;13.50;99.90
19862;DHT22;10093;48.148;8.542;2022-10-16T05:27:42;13.60;99.90
19862;DHT22;10093;48.148;8.542;2022-10-16T05:30:08;13.60;99.90
19862;DHT22;10093;48.148;8.542;2022-10-16T05:32:34;13.60;99.90
19862;DHT22;10093;48.148;8.542;2022-10-16T05:34:59;13.60;99.90
19862;DHT22;10093;48.148;8.542;2022-10-16T05:37:27;13.70;99.90
19862;DHT22;10093;48.148;8.542;2022-10-16T05:39:53;13.70;99.90
19862;DHT22;10093;48.148;8.542;2022-10-16T05:42:18;13.70;99.90
19862;DHT22;10093;48.148;8.542;2022-10-16T05:44:44;13.80;99.90
19862;DHT22;10093;48.148;8.542;2022-10-16T05:47:11;13.80;99.90
19862;DHT22;10093;48.148;8.542;2022-10-16T05:49:37;13.70;99.90
19862;DHT22;10093;48.148;8.542;2022-10-16T05:52:03;13.70;99.90
19862;DHT22;10093;48.148;8.542;2022-10-16T05:54:29;13.70;99.90
19862;DHT22;10093;48.148;8.542;2022-10-16T05:56:54;13.70;99.90
19862;DHT22;10093;48.148;8.542;2022-10-16T05:59:20;13.70;99.90
19862;DHT22;10093;48.148;8.542;2022-10-16T06:01:45;13.80;99.90
19862;DHT22;10093;48.148;8.542;2022-10-16T06:04:11;13.80;99.90
19862;DHT22;10093;48.148;8.542;2022-10-16T06:06:37;13.80;99.90
19862;DHT22;10093;48.148;8.542;2022-10-16T06:09:03;13.90;99.90
19862;DHT22;10093;48.148;8.542;2022-10-16T06:11:31;13.90;99.90
19862;DHT22;10093;48.148;8.542;2022-10-16T06:14:00;13.90;99.90
19862;DHT22;10093;48.148;8.542;2022-10-16T06:16:28;14.00;99.90
19862;DHT22;10093;48.148;8.542;2022-10-16T06:18:55;14.00;99.90
19862;DHT22;10093;48.148;8.542;2022-10-16T06:21:26;14.00;99.90
19862;DHT22;10093;48.148;8.542;2022-10-16T06:23:53;14.10;99.90
19862;DHT22;10093;48.148;8.542;2022-10-16T06:26:21;14.10;99.90
19862;DHT22;10093;48.148;8.542;2022-10-16T06:28:48;14.20;99.90
19862;DHT22;10093;48.148;8.542;2022-10-16T06:31:14;14.20;99.90
19862;DHT22;10093;48.148;8.542;2022-10-16T06:33:40;14.30;99.90
19862;DHT22;10093;48.148;8.542;2022-10-16T06:36:11;14.40;99.90
19862;DHT22;10093;48.148;8.542;2022-10-16T06:38:38;14.40;99.90
19862;DHT22;10093;48.148;8.542;2022-10-16T06:41:04;14.50;99.90
19862;DHT22;10093;48.148;8.542;2022-10-16T06:43:31;14.50;99.90
19862;DHT22;10093;48.148;8.542;2022-10-16T06:45:58;14.60;99.90
19862;DHT22;10093;48.148;8.542;2022-10-16T06:48:25;14.60;99.90
19862;DHT22;10093;48.148;8.542;2022-10-16T06:51:04;14.70;99.90
19862;DHT22;10093;48.148;8.542;2022-10-16T06:53:33;14.70;99.90
19862;DHT22;10093;48.148;8.542;2022-10-16T06:56:07;14.60;99.90
19862;DHT22;10093;48.148;8.542;2022-10-16T06:58:32;14.70;99.90
19862;DHT22;10093;48.148;8.542;2022-10-16T07:00:58;14.80;99.90
19862;DHT22;10093;48.148;8.542;2022-10-16T07:03:24;14.80;99.90
19862;DHT22;10093;48.148;8.542;2022-10-16T07:05:49;14.90;99.90
19862;DHT22;10093;48.148;8.542;2022-10-16T07:08:15;14.90;99.90
19862;DHT22;10093;48.148;8.542;2022-10-16T07:10:40;14.90;99.90
19862;DHT22;10093;48.148;8.542;2022-10-16T07:13:06;15.00;99.90
19862;DHT22;10093;48.148;8.542;2022-10-16T07:15:33;14.90;99.90
19862;DHT22;10093;48.148;8.542;2022-10-16T07:17:59;15.00;99.90
19862;DHT22;10093;48.148;8.542;2022-10-16T07:20:24;15.10;99.90
19862;DHT22;10093;48.148;8.542;2022-10-16T07:22:50;15.00;99.90
19862;DHT22;10093;48.148;8.542;2022-10-16T07:25:16;15.00;99.90
19862;DHT22;10093;48.148;8.542;2022-10-16T07:27:42;15.10;99.90
19862;DHT22;10093;48.148;8.542;2022-10-16T07:30:08;15.20;99.90
19862;DHT22;10093;48.148;8.542;2022-10-16T07:32:34;15.20;99.90
19862;DHT22;10093;48.148;8.542;2022-10-16T07:34:59;15.30;99.90
19862;DHT22;10093;48.148;8.542;2022-10-16T07:37:25;15.30;99.90
19862;DHT22;10093;48.148;8.542;2022-10-16T07:39:50;15.30;99.90
19862;DHT22;10093;48.148;8.542;2022-10-16T07:42:16;15.30;99.90
19862;DHT22;10093;48.148;8.542;2022-10-16T07:44:42;15.30;99.90
19862;DHT22;10093;48.148;8.542;2022-10-16T07:47:08;15.30;99.90
19862;DHT22;10093;48.148;8.542;2022-10-16T07:49:34;15.30;99.90
19862;DHT22;10093;48.148;8.542;2022-10-16T07:51:59;15.40;99.90
19862;DHT22;10093;48.148;8.542;2022-10-16T07:54:25;15.50;99.90
19862;DHT22;10093;48.148;8.542;2022-10-16T07:56:51;15.50;99.90
19862;DHT22;10093;48.148;8.542;2022-10-16T07:59:16;15.60;99.90
19862;DHT22;10093;48.148;8.542;2022-10-16T08:01:42;15.70;99.90
19862;DHT22;10093;48.148;8.542;2022-10-16T08:04:08;15.80;99.90
19862;DHT22;10093;48.148;8.542;2022-10-16T08:06:38;16.00;99.90
19862;DHT22;10093;48.148;8.542;2022-10-16T08:09:04;16.20;99.90
19862;DHT22;10093;48.148;8.542;2022-10-16T08:11:30;16.40;99.90
19862;DHT22;10093;48.148;8.542;2022-10-16T08:13:56;16.30;99.90
19862;DHT22;10093;48.148;8.542;2022-10-16T08:16:21;16.40;99.90
19862;DHT22;10093;48.148;8.542;2022-10-16T08:18:47;16.40;99.90
19862;DHT22;10093;48.148;8.542;2022-10-16T08:21:15;16.50;99.90
19862;DHT22;10093;48.148;8.542;2022-10-16T08:23:42;16.40;99.90
19862;DHT22;10093;48.148;8.542;2022-10-16T08:26:08;16.40;99.90
19862;DHT22;10093;48.148;8.542;2022-10-16T08:28:34;16.60;99.90
19862;DHT22;10093;48.148;8.542;2022-10-16T08:31:12;16.80;99.90
19862;DHT22;10093;48.148;8.542;2022-10-16T08:33:38;17.00;99.90
19862;DHT22;10093;48.148;8.542;2022-10-16T08:36:06;17.30;99.90
19862;DHT22;10093;48.148;8.542;2022-10-16T08:38:32;17.40;99.90
19862;DHT22;10093;48.148;8.542;2022-10-16T08:41:34;17.40;99.90
19862;DHT22;10093;48.148;8.542;2022-10-16T08:47:15;17.20;99.90
19862;DHT22;10093;48.148;8.542;2022-10-16T08:49:54;17.00;99.90
19862;DHT22;10093;48.148;8.542;2022-10-16T08:52:20;16.90;99.90
19862;DHT22;10093;48.148;8.542;2022-10-16T08:54:55;17.00;99.90
19862;DHT22;10093;48.148;8.542;2022-10-16T08:57:22;17.10;99.90
19862;DHT22;10093;48.148;8.542;2022-10-16T08:59:48;17.30;99.90
19862;DHT22;10093;48.148;8.542;2022-10-16T09:02:32;17.40;99.90
19862;DHT22;10093;48.148;8.542;2022-10-16T09:13:18;17.80;99.90
19862;DHT22;10093;48.148;8.542;2022-10-16T09:21:21;18.00;99.90
19862;DHT22;10093;48.148;8.542;2022-10-16T09:23:49;18.10;99.90
19862;DHT22;10093;48.148;8.542;2022-10-16T09:26:16;18.00;99.90
19862;DHT22;10093;48.148;8.542;2022-10-16T09:28:43;17.80;99.90
19862;DHT22;10093;48.148;8.542;2022-10-16T09:31:20;17.50;99.90
19862;DHT22;10093;48.148;8.542;2022-10-16T09:33:58;17.20;99.90
19862;DHT22;10093;48.148;8.542;2022-10-16T09:36:26;17.00;99.90
19862;DHT22;10093;48.148;8.542;2022-10-16T09:39:08;17.20;99.90
19862;DHT22;10093;48.148;8.542;2022-10-16T09:41:39;17.40;99.90
19862;DHT22;10093;48.148;8.542;2022-10-16T09:44:18;17.20;99.90
19862;DHT22;10093;48.148;8.542;2022-10-16T09:46:44;16.90;99.90
19862;DHT22;10093;48.148;8.542;2022-10-16T09:49:25;17.10;99.90
19862;DHT22;10093;48.148;8.542;2022-10-16T09:52:02;17.30;99.90
19862;DHT22;10093;48.148;8.542;2022-10-16T09:54:28;17.60;99.90
19862;DHT22;10093;48.148;8.542;2022-10-16T09:57:04;18.00;99.90
19862;DHT22;10093;48.148;8.542;2022-10-16T09:59:31;18.30;99.90
19862;DHT22;10093;48.148;8.542;2022-10-16T10:02:01;19.00;99.90
19862;DHT22;10093;48.148;8.542;2022-10-16T10:04:39;19.30;99.90
19862;DHT22;10093;48.148;8.542;2022-10-16T10:07:07;19.40;99.90
19862;DHT22;10093;48.148;8.542;2022-10-16T10:09:42;19.40;99.90
19862;DHT22;10093;48.148;8.542;2022-10-16T10:12:28;20.20;99.90
19862;DHT22;10093;48.148;8.542;2022-10-16T10:14:56;22.80;99.90
19862;DHT22;10093;48.148;8.542;2022-10-16T10:17:28;24.70;99.90
19862;DHT22;10093;48.148;8.542;2022-10-16T10:22:32;26.50;99.90
19862;DHT22;10093;48.148;8.542;2022-10-16T10:41:32;23.40;99.90
19862;DHT22;10093;48.148;8.542;2022-10-16T10:47:58;22.40;99.90
19862;DHT22;10093;48.148;8.542;2022-10-16T10:53:17;21.40;99.90
19862;DHT22;10093;48.148;8.542;2022-10-16T10:55:54;20.90;99.90
19862;DHT22;10093;48.148;8.542;2022-10-16T11:09:17;27.80;99.90
19862;DHT22;10093;48.148;8.542;2022-10-16T11:14:19;25.50;99.90
19862;DHT22;10093;48.148;8.542;2022-10-16T11:16:52;24.40;99.90
19862;DHT22;10093;48.148;8.542;2022-10-16T11:19:33;24.50;99.90
19862;DHT22;10093;48.148;8.542;2022-10-16T11:22:14;23.90;99.90
19862;DHT22;10093;48.148;8.542;2022-10-16T11:24:44;23.80;99.90
19862;DHT22;10093;48.148;8.542;2022-10-16T11:27:15;24.10;99.90
19862;DHT22;10093;48.148;8.542;2022-10-16T11:29:49;23.90;99.90
19862;DHT22;10093;48.148;8.542;2022-10-16T11:32:22;23.30;99.90
19862;DHT22;10093;48.148;8.542;2022-10-16T11:34:53;23.40;99.90
19862;DHT22;10093;48.148;8.542;2022-10-16T11:37:32;23.20;99.90
19862;DHT22;10093;48.148;8.542;2022-10-16T11:40:14;26.00;99.90
19862;DHT22;10093;48.148;8.542;2022-10-16T11:42:46;27.70;99.90
19862;DHT22;10093;48.148;8.542;2022-10-16T11:47:54;27.60;99.90
19862;DHT22;10093;48.148;8.542;2022-10-16T11:50:43;27.30;99.90
19862;DHT22;10093;48.148;8.542;2022-10-16T11:53:39;25.50;99.90
19862;DHT22;10093;48.148;8.542;2022-10-16T11:56:13;25.30;99.90
19862;DHT22;10093;48.148;8.542;2022-10-16T12:01:32;25.70;99.90
19862;DHT22;10093;48.148;8.542;2022-10-16T12:04:06;26.00;99.90
19862;DHT22;10093;48.148;8.542;2022-10-16T12:06:53;26.70;99.90
19862;DHT22;10093;48.148;8.542;2022-10-16T12:09:27;26.80;99.90
19862;DHT22;10093;48.148;8.542;2022-10-16T12:11:54;23.40;99.90
19862;DHT22;10093;48.148;8.542;2022-10-16T12:14:33;23.60;99.90
19862;DHT22;10093;48.148;8.542;2022-10-16T12:17:03;24.50;99.90
19862;DHT22;10093;48.148;8.542;2022-10-16T12:19:32;25.10;99.90
19862;DHT22;10093;48.148;8.542;2022-10-16T12:21:59;25.70;99.90
19862;DHT22;10093;48.148;8.542;2022-10-16T12:24:33;25.80;99.90
19862;DHT22;10093;48.148;8.542;2022-10-16T12:27:00;25.10;99.90
19862;DHT22;10093;48.148;8.542;2022-10-16T12:34:48;24.30;99.90
19862;DHT22;10093;48.148;8.542;2022-10-16T12:37:29;23.10;99.90
19862;DHT22;10093;48.148;8.542;2022-10-16T12:39:57;22.60;99.90
19862;DHT22;10093;48.148;8.542;2022-10-16T12:44:52;24.40;99.90
19862;DHT22;10093;48.148;8.542;2022-10-16T12:49:57;23.10;99.90
19862;DHT22;10093;48.148;8.542;2022-10-16T12:52:38;24.10;99.90
19862;DHT22;10093;48.148;8.542;2022-10-16T12:55:05;26.10;99.90
19862;DHT22;10093;48.148;8.542;2022-10-16T13:00:26;27.00;99.90
19862;DHT22;10093;48.148;8.542;2022-10-16T13:03:23;27.60;99.90
19862;DHT22;10093;48.148;8.542;2022-10-16T13:06:08;27.60;99.90
19862;DHT22;10093;48.148;8.542;2022-10-16T13:16:52;25.50;99.90
19862;DHT22;10093;48.148;8.542;2022-10-16T13:19:29;26.60;99.90
19862;DHT22;10093;48.148;8.542;2022-10-16T13:25:02;26.40;99.90
19862;DHT22;10093;48.148;8.542;2022-10-16T13:28:00;26.40;99.90
19862;DHT22;10093;48.148;8.542;2022-10-16T13:30:29;26.50;99.90
19862;DHT22;10093;48.148;8.542;2022-10-16T13:33:25;26.20;99.90
19862;DHT22;10093;48.148;8.542;2022-10-16T13:35:54;26.40;99.90
19862;DHT22;10093;48.148;8.542;2022-10-16T13:38:25;26.70;99.90
19862;DHT22;10093;48.148;8.542;2022-10-16T13:41:04;26.80;99.90
19862;DHT22;10093;48.148;8.542;2022-10-16T13:43:51;25.90;99.90
19862;DHT22;10093;48.148;8.542;2022-10-16T13:46:23;24.10;99.90
19862;DHT22;10093;48.148;8.542;2022-10-16T13:49:20;25.70;99.90
19862;DHT22;10093;48.148;8.542;2022-10-16T13:51:59;26.60;99.90
19862;DHT22;10093;48.148;8.542;2022-10-16T13:54:26;26.80;99.90
19862;DHT22;10093;48.148;8.542;2022-10-16T13:56:52;26.30;99.90
19862;DHT22;10093;48.148;8.542;2022-10-16T14:01:49;25.00;99.90
19862;DHT22;10093;48.148;8.542;2022-10-16T14:04:16;24.60;99.90
19862;DHT22;10093;48.148;8.542;2022-10-16T14:06:45;24.70;99.90
19862;DHT22;10093;48.148;8.542;2022-10-16T14:09:28;23.40;99.90
19862;DHT22;10093;48.148;8.542;2022-10-16T14:14:27;24.70;99.90
19862;DHT22;10093;48.148;8.542;2022-10-16T14:16:57;25.40;99.90
19862;DHT22;10093;48.148;8.542;2022-10-16T14:19:26;26.50;99.90
19862;DHT22;10093;48.148;8.542;2022-10-16T14:21:53;26.60;99.90
19862;DHT22;10093;48.148;8.542;2022-10-16T14:24:34;26.40;99.90
19862;DHT22;10093;48.148;8.542;2022-10-16T14:27:01;26.10;99.90
19862;DHT22;10093;48.148;8.542;2022-10-16T14:29:29;25.70;99.90
19862;DHT22;10093;48.148;8.542;2022-10-16T14:32:00;25.60;99.90
19862;DHT22;10093;48.148;8.542;2022-10-16T14:34:34;25.50;99.90
19862;DHT22;10093;48.148;8.542;2022-10-16T14:37:10;25.80;99.90
19862;DHT22;10093;48.148;8.542;2022-10-16T14:39:40;26.30;99.90
19862;DHT22;10093;48.148;8.542;2022-10-16T14:42:14;27.20;99.90
19862;DHT22;10093;48.148;8.542;2022-10-16T14:44:41;26.60;99.90
19862;DHT22;10093;48.148;8.542;2022-10-16T14:47:13;25.70;99.90
19862;DHT22;10093;48.148;8.542;2022-10-16T14:49:42;25.50;99.90
19862;DHT22;10093;48.148;8.542;2022-10-16T14:52:11;24.90;99.90
19862;DHT22;10093;48.148;8.542;2022-10-16T14:54:37;24.50;99.90
19862;DHT22;10093;48.148;8.542;2022-10-16T14:57:04;24.40;99.90
19862;DHT22;10093;48.148;8.542;2022-10-16T14:59:43;24.60;99.90
19862;DHT22;10093;48.148;8.542;2022-10-16T15:04:46;24.80;99.90
19862;DHT22;10093;48.148;8.542;2022-10-16T15:07:12;25.10;99.90
19862;DHT22;10093;48.148;8.542;2022-10-16T15:09:37;25.10;99.90
19862;DHT22;10093;48.148;8.542;2022-10-16T15:12:05;25.20;99.90
19862;DHT22;10093;48.148;8.542;2022-10-16T15:14:30;25.00;99.90
19862;DHT22;10093;48.148;8.542;2022-10-16T15:16:56;24.80;99.90
19862;DHT22;10093;48.148;8.542;2022-10-16T15:19:22;24.40;99.90
19862;DHT22;10093;48.148;8.542;2022-10-16T15:21:47;24.10;99.90
19862;DHT22;10093;48.148;8.542;2022-10-16T15:24:14;23.30;99.90
19862;DHT22;10093;48.148;8.542;2022-10-16T15:26:40;22.90;99.90
19862;DHT22;10093;48.148;8.542;2022-10-16T15:29:06;23.00;99.90
19862;DHT22;10093;48.148;8.542;2022-10-16T15:31:32;22.30;99.90
19862;DHT22;10093;48.148;8.542;2022-10-16T15:33:57;21.70;99.90
19862;DHT22;10093;48.148;8.542;2022-10-16T15:36:32;21.20;99.90
19862;DHT22;10093;48.148;8.542;2022-10-16T15:39:13;21.10;99.90
19862;DHT22;10093;48.148;8.542;2022-10-16T15:41:39;21.50;99.90
19862;DHT22;10093;48.148;8.542;2022-10-16T15:44:05;21.20;99.90
19862;DHT22;10093;48.148;8.542;2022-10-16T15:46:30;20.80;99.90
19862;DHT22;10093;48.148;8.542;2022-10-16T15:48:59;20.90;99.90
19862;DHT22;10093;48.148;8.542;2022-10-16T15:51:26;20.70;99.90
19862;DHT22;10093;48.148;8.542;2022-10-16T15:53:58;20.70;99.90
19862;DHT22;10093;48.148;8.542;2022-10-16T15:56:24;20.50;99.90
19862;DHT22;10093;48.148;8.542;2022-10-16T15:58:51;20.30;99.90
19862;DHT22;10093;48.148;8.542;2022-10-16T16:01:18;20.10;99.90
19862;DHT22;10093;48.148;8.542;2022-10-16T16:03:44;19.90;99.90
19862;DHT22;10093;48.148;8.542;2022-10-16T16:06:12;19.60;99.90
19862;DHT22;10093;48.148;8.542;2022-10-16T16:08:38;19.40;99.90
19862;DHT22;10093;48.148;8.542;2022-10-16T16:13:32;19.10;99.90
19862;DHT22;10093;48.148;8.542;2022-10-16T16:15:57;18.90;99.90
19862;DHT22;10093;48.148;8.542;2022-10-16T16:18:23;18.70;99.90
19862;DHT22;10093;48.148;8.542;2022-10-16T16:20:50;18.50;99.90
19862;DHT22;10093;48.148;8.542;2022-10-16T16:23:16;18.40;99.90
19862;DHT22;10093;48.148;8.542;2022-10-16T16:25:41;18.20;99.90
19862;DHT22;10093;48.148;8.542;2022-10-16T16:28:07;18.00;99.90
19862;DHT22;10093;48.148;8.542;2022-10-16T16:30:36;17.90;99.90
19862;DHT22;10093;48.148;8.542;2022-10-16T16:33:01;17.80;99.90
19862;DHT22;10093;48.148;8.542;2022-10-16T16:35:27;17.70;99.90
19862;DHT22;10093;48.148;8.542;2022-10-16T16:37:52;17.70;99.90
19862;DHT22;10093;48.148;8.542;2022-10-16T16:40:18;17.60;99.90
19862;DHT22;10093;48.148;8.542;2022-10-16T16:42:44;17.50;99.90
19862;DHT22;10093;48.148;8.542;2022-10-16T16:45:09;17.30;99.90
19862;DHT22;10093;48.148;8.542;2022-10-16T16:47:35;17.10;99.90
19862;DHT22;10093;48.148;8.542;2022-10-16T16:50:01;17.10;99.90
19862;DHT22;10093;48.148;8.542;2022-10-16T16:52:30;16.90;99.90
19862;DHT22;10093;48.148;8.542;2022-10-16T16:54:55;16.70;99.90
19862;DHT22;10093;48.148;8.542;2022-10-16T16:57:21;16.40;99.90
19862;DHT22;10093;48.148;8.542;2022-10-16T16:59:47;16.10;99.90
19862;DHT22;10093;48.148;8.542;2022-10-16T17:02:15;15.80;99.90
19862;DHT22;10093;48.148;8.542;2022-10-16T17:04:40;15.60;99.90
19862;DHT22;10093;48.148;8.542;2022-10-16T17:07:06;15.40;99.90
19862;DHT22;10093;48.148;8.542;2022-10-16T17:09:32;15.20;99.90
19862;DHT22;10093;48.148;8.542;2022-10-16T17:11:59;15.00;99.90
19862;DHT22;10093;48.148;8.542;2022-10-16T17:14:24;14.90;99.90
19862;DHT22;10093;48.148;8.542;2022-10-16T17:16:52;14.90;99.90
19862;DHT22;10093;48.148;8.542;2022-10-16T17:19:18;14.80;99.90
19862;DHT22;10093;48.148;8.542;2022-10-16T17:21:45;14.60;99.90
19862;DHT22;10093;48.148;8.542;2022-10-16T17:24:10;14.50;99.90
19862;DHT22;10093;48.148;8.542;2022-10-16T17:26:36;14.50;99.90
19862;DHT22;10093;48.148;8.542;2022-10-16T17:29:03;14.70;99.90
19862;DHT22;10093;48.148;8.542;2022-10-16T17:31:31;14.50;99.90